Time;durP1;ratioP1;P1;durP2;ratioP2;P2;SDS_P1;SDS_P2;PMS_P1;PMS_P2;Temp;Humidity;BMP_temperature;BMP_pressure;BME280_temperature;BME280_humidity;BME280_pressure;Samples;Min_cycle;Max_cycle;Signal;HPM_P1;HPM_P2
2022/06/08 00:07:14;;;;;;;0.20;0.10;;;20.60;99.90;;;;;;26174485;22;20186;-71
2022/06/08 00:17:18;;;;;;;0.20;0.00;;;20.90;99.90;;;;;;26176354;22;20224;-70
2022/06/08 00:27:23;;;;;;;0.20;0.00;;;21.00;99.90;;;;;;26175325;22;20202;-71
2022/06/08 00:37:27;;;;;;;0.20;0.00;;;20.90;99.90;;;;;;26175005;22;20171;-70
2022/06/08 00:47:36;;;;;;;0.20;0.00;;;21.10;99.90;;;;;;26146583;22;20215;-71
2022/06/08 00:57:43;;;;;;;0.20;0.10;;;21.20;99.90;;;;;;26145331;22;20241;-71
2022/06/08 01:07:51;;;;;;;0.20;0.00;;;21.30;99.90;;;;;;26174728;22;20180;-72
2022/06/08 01:17:55;;;;;;;0.20;0.00;;;21.30;99.90;;;;;;26173862;22;20171;-71
2022/06/08 01:28:14;;;;;;;0.20;0.00;;;21.40;99.90;;;;;;26173357;22;20196;-72
2022/06/08 01:38:29;;;;;;;0.20;0.00;;;21.40;99.90;;;;;;26147184;22;20174;-71
2022/06/08 01:49:10;;;;;;;0.20;0.00;;;21.40;99.90;;;;;;26139224;22;20399;-71
2022/06/08 01:59:25;;;;;;;0.20;0.10;;;21.60;99.90;;;;;;26133588;22;21013;-72
2022/06/08 02:09:36;;;;;;;0.20;0.00;;;21.50;99.90;;;;;;26143574;22;20187;-72
2022/06/08 02:19:45;;;;;;;0.20;0.10;;;21.40;99.90;;;;;;26170680;22;20158;-71
2022/06/08 02:29:55;;;;;;;0.20;0.00;;;21.50;99.90;;;;;;26171671;22;20199;-71
2022/06/08 02:40:05;;;;;;;0.20;0.00;;;21.50;99.90;;;;;;26171334;22;20152;-72
2022/06/08 02:50:14;;;;;;;0.20;0.00;;;21.40;99.90;;;;;;26169440;22;20204;-71
2022/06/08 03:00:23;;;;;;;0.20;0.00;;;21.50;99.90;;;;;;26170132;22;20164;-73
2022/06/08 03:10:34;;;;;;;0.20;0.00;;;21.50;99.90;;;;;;26170326;22;20198;-72
2022/06/08 03:20:38;;;;;;;0.20;0.00;;;21.50;99.90;;;;;;26167675;22;20164;-71
2022/06/08 03:30:45;;;;;;;0.20;0.00;;;21.50;99.90;;;;;;26141284;22;20198;-72
2022/06/08 03:40:49;;;;;;;0.20;0.00;;;21.60;99.90;;;;;;26140866;22;20193;-72
2022/06/08 03:50:56;;;;;;;0.20;0.00;;;21.40;99.90;;;;;;26168736;22;20199;-73
2022/06/08 04:01:01;;;;;;;0.20;0.00;;;21.40;99.90;;;;;;26140821;22;20316;-72
2022/06/08 04:11:06;;;;;;;0.20;0.00;;;21.40;99.90;;;;;;26170876;22;20175;-73
2022/06/08 04:21:11;;;;;;;0.20;0.00;;;21.50;99.90;;;;;;26175942;22;20163;-72
2022/06/08 04:31:17;;;;;;;0.20;0.00;;;21.60;99.90;;;;;;26173065;22;20198;-72
2022/06/08 04:41:21;;;;;;;0.20;0.00;;;21.50;99.90;;;;;;26146866;22;20183;-71
2022/06/08 04:51:26;;;;;;;0.20;0.00;;;21.50;99.90;;;;;;26172459;22;20200;-72
2022/06/08 05:01:30;;;;;;;0.20;0.00;;;21.50;99.90;;;;;;26147725;22;20160;-71
2022/06/08 05:11:35;;;;;;;0.20;0.00;;;21.60;99.90;;;;;;26146871;22;20267;-73
2022/06/08 05:21:40;;;;;;;0.20;0.00;;;21.70;99.90;;;;;;26146267;22;20178;-72
2022/06/08 05:31:45;;;;;;;0.20;0.00;;;21.80;99.90;;;;;;26170891;22;20195;-71
2022/06/08 05:41:49;;;;;;;0.20;0.00;;;21.90;99.90;;;;;;26170281;22;20171;-72
2022/06/08 05:51:54;;;;;;;0.20;0.00;;;22.00;99.90;;;;;;26167503;22;20195;-74
2022/06/08 06:01:58;;;;;;;0.20;0.00;;;22.30;99.90;;;;;;26136069;22;20174;-74
2022/06/08 06:12:03;;;;;;;0.20;0.00;;;22.70;99.90;;;;;;26135248;22;20191;-72
2022/06/08 06:22:07;;;;;;;0.20;0.08;;;22.80;99.90;;;;;;26163859;22;20151;-74
2022/06/08 06:32:19;;;;;;;0.20;0.00;;;23.20;99.90;;;;;;26166114;22;20191;-73
2022/06/08 06:42:26;;;;;;;0.20;0.00;;;23.60;99.90;;;;;;26161368;22;20672;-72
2022/06/08 06:52:32;;;;;;;0.20;0.00;;;23.80;99.90;;;;;;26135897;22;20199;-70
2022/06/08 07:02:35;;;;;;;0.20;0.00;;;23.90;99.90;;;;;;26163551;22;20163;-73
2022/06/08 07:12:41;;;;;;;0.20;0.00;;;24.20;99.90;;;;;;26163106;22;20183;-73
2022/06/08 07:22:44;;;;;;;0.20;0.10;;;24.60;99.90;;;;;;26165718;22;20580;-73
2022/06/08 07:32:50;;;;;;;0.20;0.00;;;24.50;99.90;;;;;;26137843;22;20196;-73
2022/06/08 07:42:54;;;;;;;0.20;0.00;;;24.60;99.90;;;;;;26140664;22;20167;-72
2022/06/08 07:53:00;;;;;;;0.20;0.10;;;24.80;99.90;;;;;;26146754;22;20199;-72
2022/06/08 08:03:04;;;;;;;0.20;0.00;;;24.80;99.90;;;;;;26144813;22;20235;-74
2022/06/08 08:13:16;;;;;;;0.20;0.00;;;24.80;99.90;;;;;;26168555;22;20180;-72
2022/06/08 08:23:20;;;;;;;0.20;0.10;;;24.90;99.90;;;;;;26134966;22;20176;-68
2022/06/08 08:33:25;;;;;;;0.20;0.00;;;25.00;99.90;;;;;;26134590;22;20211;-72
2022/06/08 08:43:32;;;;;;;0.20;0.00;;;24.70;99.90;;;;;;26157798;22;20182;-73
2022/06/08 08:53:48;;;;;;;0.20;0.00;;;25.00;99.90;;;;;;26129782;22;20285;-72
2022/06/08 09:03:57;;;;;;;0.20;0.00;;;25.40;99.90;;;;;;26156824;22;20170;-72
2022/06/08 09:14:08;;;;;;;0.20;0.00;;;25.60;99.90;;;;;;26104909;22;20229;-71
2022/06/08 09:24:26;;;;;;;0.20;0.10;;;25.30;99.90;;;;;;26128503;22;20191;-73
2022/06/08 09:34:38;;;;;;;0.20;0.10;;;25.40;99.90;;;;;;26130443;22;20202;-72
2022/06/08 09:44:50;;;;;;;0.20;0.00;;;25.40;99.90;;;;;;26158760;22;20175;-72
2022/06/08 09:55:08;;;;;;;0.20;0.00;;;25.40;99.90;;;;;;26130285;22;20198;-72
2022/06/08 10:05:25;;;;;;;0.20;0.10;;;25.70;99.90;;;;;;26129796;22;20585;-73
2022/06/08 10:15:34;;;;;;;0.20;0.00;;;25.50;99.90;;;;;;26127788;22;20183;-73
2022/06/08 10:25:43;;;;;;;0.20;0.00;;;26.10;99.90;;;;;;26156158;22;20187;-72
2022/06/08 10:35:52;;;;;;;0.20;0.00;;;25.90;99.90;;;;;;26157086;22;20198;-73
2022/06/08 10:46:00;;;;;;;0.20;0.00;;;26.90;99.90;;;;;;26126189;22;20193;-73
2022/06/08 10:56:33;;;;;;;0.20;0.10;;;26.80;99.90;;;;;;26125718;22;20237;-72
2022/06/08 11:07:00;;;;;;;0.20;0.00;;;27.30;99.90;;;;;;26160079;22;20159;-71
2022/06/08 11:17:12;;;;;;;0.20;0.00;;;27.80;99.90;;;;;;26165742;22;20273;-72
2022/06/08 11:27:29;;;;;;;0.20;0.00;;;27.50;99.90;;;;;;26160767;22;20198;-73
2022/06/08 11:37:45;;;;;;;0.20;0.00;;;28.10;99.90;;;;;;26163839;22;20168;-73
2022/06/08 11:47:56;;;;;;;0.20;0.00;;;28.10;99.90;;;;;;26161163;22;20278;-70
2022/06/08 11:58:10;;;;;;;0.20;0.00;;;28.50;99.90;;;;;;26158778;22;20202;-70
2022/06/08 12:08:19;;;;;;;0.20;0.10;;;28.60;99.90;;;;;;26159650;22;20183;-70
2022/06/08 12:18:48;;;;;;;0.20;0.00;;;29.20;99.90;;;;;;26158387;22;20163;-70
2022/06/08 12:29:14;;;;;;;0.20;0.00;;;28.10;99.90;;;;;;26157987;22;20722;-74
2022/06/08 12:39:29;;;;;;;0.20;0.00;;;28.60;99.90;;;;;;26156852;22;20182;-71
2022/06/08 12:49:42;;;;;;;0.20;0.00;;;28.70;99.90;;;;;;26133008;22;20199;-70
2022/06/08 12:59:51;;;;;;;0.20;0.00;;;28.70;99.90;;;;;;26131248;22;20159;-70
2022/06/08 13:09:55;;;;;;;0.20;0.10;;;27.80;99.90;;;;;;26131139;22;20187;-70
2022/06/08 13:20:00;;;;;;;0.20;0.00;;;29.50;99.90;;;;;;26156927;22;20164;-70
2022/06/08 13:30:06;;;;;;;0.20;0.00;;;30.30;99.90;;;;;;26158819;22;20199;-72
2022/06/08 13:40:17;;;;;;;0.20;0.00;;;27.10;99.90;;;;;;26159285;22;20163;-72
2022/06/08 13:50:28;;;;;;;0.20;0.00;;;27.40;99.90;;;;;;26133922;22;20195;-71
2022/06/08 14:00:38;;;;;;;0.20;0.00;;;28.10;99.90;;;;;;26155840;22;20155;-70
2022/06/08 14:21:06;;;;;;;0.20;0.00;;;27.40;99.90;;;;;;26127591;22;20166;-72
2022/06/08 14:31:15;;;;;;;0.20;0.10;;;27.40;99.90;;;;;;26124777;22;20195;-72
2022/06/08 14:41:20;;;;;;;0.20;0.00;;;26.70;99.90;;;;;;26152373;22;20253;-71
2022/06/08 14:51:24;;;;;;;0.20;0.00;;;26.50;99.90;;;;;;26152167;22;20204;-70
2022/06/08 15:01:34;;;;;;;0.20;0.00;;;26.30;99.90;;;;;;26151561;22;20160;-72
2022/06/08 15:22:01;;;;;;;0.20;0.10;;;27.20;99.90;;;;;;26120751;22;20151;-71
2022/06/08 15:32:06;;;;;;;0.20;0.00;;;28.30;99.90;;;;;;26149415;22;20211;-72
2022/06/08 15:42:13;;;;;;;0.20;0.00;;;27.00;99.90;;;;;;26151666;22;20602;-71
2022/06/08 15:52:21;;;;;;;0.20;0.00;;;28.40;99.90;;;;;;26147034;22;20203;-70
2022/06/08 16:02:26;;;;;;;0.20;0.00;;;27.10;99.90;;;;;;26121021;22;20178;-71
2022/06/08 16:12:30;;;;;;;0.20;0.00;;;27.90;99.90;;;;;;26153073;22;20213;-67
2022/06/08 16:22:36;;;;;;;0.20;0.00;;;25.60;99.90;;;;;;26152453;22;20174;-70
2022/06/08 16:32:40;;;;;;;0.20;0.10;;;25.00;99.90;;;;;;26153392;22;20195;-71
2022/06/08 16:42:45;;;;;;;0.20;0.00;;;25.50;99.90;;;;;;26129356;22;20171;-71
2022/06/08 16:52:49;;;;;;;0.20;0.00;;;25.60;99.90;;;;;;26158453;22;20395;-71
2022/06/08 17:02:54;;;;;;;0.20;0.00;;;25.40;99.90;;;;;;26164197;22;20175;-71
2022/06/08 17:12:58;;;;;;;0.20;0.00;;;25.10;99.90;;;;;;26165339;22;20183;-71
2022/06/08 17:23:04;;;;;;;0.20;0.00;;;24.80;99.90;;;;;;26133805;22;20172;-74
2022/06/08 17:33:08;;;;;;;0.20;0.00;;;26.60;99.90;;;;;;26162785;22;21018;-73
2022/06/08 17:43:13;;;;;;;0.20;0.00;;;27.30;99.90;;;;;;26163373;22;20225;-72
2022/06/08 17:53:18;;;;;;;0.20;0.10;;;25.60;99.90;;;;;;26136736;22;20221;-72
2022/06/08 18:03:23;;;;;;;0.20;0.10;;;25.10;99.90;;;;;;26163006;22;20235;-72
2022/06/08 18:13:27;;;;;;;0.20;0.00;;;24.60;99.90;;;;;;26163251;22;20172;-72
2022/06/08 18:23:32;;;;;;;0.20;0.05;;;24.60;99.90;;;;;;26162775;22;20170;-71
2022/06/08 18:33:36;;;;;;;0.20;0.00;;;24.40;99.90;;;;;;26164083;22;20202;-72
2022/06/08 18:43:42;;;;;;;0.20;0.00;;;24.20;99.90;;;;;;26163613;22;20200;-71
2022/06/08 18:53:46;;;;;;;0.20;0.05;;;23.90;99.90;;;;;;26164607;22;20187;-72
2022/06/08 19:03:52;;;;;;;0.20;0.00;;;23.80;99.90;;;;;;26139295;22;20167;-72
2022/06/08 19:13:57;;;;;;;0.20;0.00;;;23.80;99.90;;;;;;26163686;22;20179;-72
2022/06/08 19:24:02;;;;;;;0.20;0.00;;;23.40;99.90;;;;;;26164456;22;20210;-72
2022/06/08 19:34:08;;;;;;;0.20;0.00;;;23.40;99.90;;;;;;26162556;22;20192;-72
2022/06/08 19:44:14;;;;;;;0.20;0.00;;;23.20;99.90;;;;;;26171103;22;20170;-71
2022/06/08 19:54:19;;;;;;;0.20;0.10;;;23.10;99.90;;;;;;26147125;22;20187;-72
2022/06/08 20:04:24;;;;;;;0.20;0.00;;;22.90;99.90;;;;;;26172237;22;20179;-73
2022/06/08 20:14:37;;;;;;;0.20;0.00;;;22.50;99.90;;;;;;26165715;22;20194;-72
2022/06/08 20:24:42;;;;;;;0.20;0.00;;;22.40;99.90;;;;;;26166495;22;20397;-71
2022/06/08 20:34:46;;;;;;;0.20;0.00;;;22.00;99.90;;;;;;26172374;22;20190;-71
2022/06/08 20:44:53;;;;;;;0.20;0.00;;;21.70;99.90;;;;;;26171745;22;20167;-72
2022/06/08 20:54:59;;;;;;;0.20;0.10;;;21.70;99.90;;;;;;26174383;22;20199;-71
2022/06/08 21:05:05;;;;;;;0.20;0.00;;;21.50;99.90;;;;;;26146459;22;20553;-72
2022/06/08 21:15:15;;;;;;;0.20;0.10;;;21.50;99.90;;;;;;26173248;22;20205;-72
2022/06/08 21:25:23;;;;;;;0.20;0.00;;;21.50;99.90;;;;;;26174183;22;20280;-71
2022/06/08 21:35:29;;;;;;;0.20;0.00;;;21.30;99.90;;;;;;26144914;22;20191;-70
2022/06/08 21:45:37;;;;;;;0.20;0.07;;;21.30;99.90;;;;;;26169567;22;20175;-72
2022/06/08 21:55:41;;;;;;;0.20;0.00;;;21.20;99.90;;;;;;26147185;22;20525;-71
2022/06/08 22:05:47;;;;;;;0.20;0.10;;;21.20;99.90;;;;;;26142420;22;20174;-71
2022/06/08 22:15:50;;;;;;;0.20;0.00;;;21.00;99.90;;;;;;26144660;22;20190;-71
2022/06/08 22:25:56;;;;;;;0.20;0.00;;;20.90;99.90;;;;;;26144585;22;20187;-72
2022/06/08 22:36:02;;;;;;;0.20;0.10;;;20.90;99.90;;;;;;26170415;22;20188;-72
2022/06/08 22:46:07;;;;;;;0.20;0.10;;;20.80;99.90;;;;;;26169212;22;20167;-72
2022/06/08 22:56:12;;;;;;;0.20;0.03;;;20.60;99.90;;;;;;26169778;22;20187;-72
2022/06/08 23:06:17;;;;;;;0.20;0.10;;;20.60;99.90;;;;;;26169812;22;20175;-73
2022/06/08 23:26:44;;;;;;;0.20;0.10;;;20.60;99.90;;;;;;26152056;22;20693;-73
2022/06/08 23:36:49;;;;;;;0.20;0.00;;;20.50;99.90;;;;;;26177145;22;20617;-73
2022/06/08 23:46:54;;;;;;;0.20;0.10;;;20.50;99.90;;;;;;26175906;22;20163;-73
2022/06/08 23:56:58;;;;;;;0.20;0.00;;;20.30;99.90;;;;;;26177171;22;20195;-70
